<?xml version="1.0" encoding="UTF-8" standalone="no" ?>
<gpx xmlns="http://www.topografix.com/GPX/1/1" xmlns:xsi="http://www.w3.org/2001/XMLSchema-instance" xsi:schemaLocation="http://www.topografix.com/GPX/1/1 http://www.topografix.com/GPX/1/1/gpx.xsd" version="1.1" creator="VisuGPX - https://www.visugpx.com">
  <metadata>
    <name>Néronde et ses environs </name>
    <desc><![CDATA[Prairies et sous bois dans la campagne  Nérondoise.]]></desc>
  </metadata>
  <trk>
    <name><![CDATA[20181127180343-cg3MB]]></name>
    <trkseg>
      <trkpt lat="45.83862" lon="4.23644">
        <ele>537.32</ele>
        <time>2018-11-26T12:35:46Z</time>
      </trkpt>
      <trkpt lat="45.83862" lon="4.23644">
        <ele>536.638</ele>
        <time>2018-11-26T12:35:52Z</time>
      </trkpt>
      <trkpt lat="45.83862" lon="4.23644">
        <ele>536.475</ele>
        <time>2018-11-26T12:35:58Z</time>
      </trkpt>
      <trkpt lat="45.83862" lon="4.23644">
        <ele>535.63</ele>
        <time>2018-11-26T12:36:04Z</time>
      </trkpt>
      <trkpt lat="45.83862" lon="4.23644">
        <ele>534.938</ele>
        <time>2018-11-26T12:36:10Z</time>
      </trkpt>
      <trkpt lat="45.83862" lon="4.23644">
        <ele>534.548</ele>
        <time>2018-11-26T12:36:15Z</time>
      </trkpt>
      <trkpt lat="45.83851" lon="4.23641">
        <ele>533.826</ele>
        <time>2018-11-26T12:36:21Z</time>
      </trkpt>
      <trkpt lat="45.8385" lon="4.23627">
        <ele>533.445</ele>
        <time>2018-11-26T12:36:27Z</time>
      </trkpt>
      <trkpt lat="45.8385" lon="4.23627">
        <ele>532.932</ele>
        <time>2018-11-26T12:36:33Z</time>
      </trkpt>
      <trkpt lat="45.83856" lon="4.23613">
        <ele>532.597</ele>
        <time>2018-11-26T12:36:38Z</time>
      </trkpt>
      <trkpt lat="45.83861" lon="4.2361">
        <ele>532.301</ele>
        <time>2018-11-26T12:36:43Z</time>
      </trkpt>
      <trkpt lat="45.83861" lon="4.2361">
        <ele>532.27</ele>
        <time>2018-11-26T12:36:49Z</time>
      </trkpt>
      <trkpt lat="45.83871" lon="4.23595">
        <ele>531.995</ele>
        <time>2018-11-26T12:36:55Z</time>
      </trkpt>
      <trkpt lat="45.83871" lon="4.23595">
        <ele>531.574</ele>
        <time>2018-11-26T12:37:00Z</time>
      </trkpt>
      <trkpt lat="45.83871" lon="4.23595">
        <ele>531.384</ele>
        <time>2018-11-26T12:37:06Z</time>
      </trkpt>
      <trkpt lat="45.83871" lon="4.23595">
        <ele>531.177</ele>
        <time>2018-11-26T12:37:12Z</time>
      </trkpt>
      <trkpt lat="45.83884" lon="4.23577">
        <ele>531.48</ele>
        <time>2018-11-26T12:37:18Z</time>
      </trkpt>
      <trkpt lat="45.83886" lon="4.23573">
        <ele>531.614</ele>
        <time>2018-11-26T12:37:23Z</time>
      </trkpt>
      <trkpt lat="45.83889" lon="4.23565">
        <ele>531.078</ele>
        <time>2018-11-26T12:37:29Z</time>
      </trkpt>
      <trkpt lat="45.83895" lon="4.23555">
        <ele>530.561</ele>
        <time>2018-11-26T12:37:35Z</time>
      </trkpt>
      <trkpt lat="45.839" lon="4.23551">
        <ele>530.219</ele>
        <time>2018-11-26T12:37:40Z</time>
      </trkpt>
      <trkpt lat="45.83909" lon="4.23546">
        <ele>529.698</ele>
        <time>2018-11-26T12:37:45Z</time>
      </trkpt>
      <trkpt lat="45.83914" lon="4.23541">
        <ele>529.084</ele>
        <time>2018-11-26T12:37:51Z</time>
      </trkpt>
      <trkpt lat="45.83918" lon="4.23538">
        <ele>528.665</ele>
        <time>2018-11-26T12:37:56Z</time>
      </trkpt>
      <trkpt lat="45.83918" lon="4.23534">
        <ele>528.262</ele>
        <time>2018-11-26T12:38:01Z</time>
      </trkpt>
      <trkpt lat="45.83924" lon="4.23522">
        <ele>527.531</ele>
        <time>2018-11-26T12:38:07Z</time>
      </trkpt>
      <trkpt lat="45.83931" lon="4.23517">
        <ele>526.893</ele>
        <time>2018-11-26T12:38:13Z</time>
      </trkpt>
      <trkpt lat="45.83936" lon="4.23512">
        <ele>526.324</ele>
        <time>2018-11-26T12:38:18Z</time>
      </trkpt>
      <trkpt lat="45.8394" lon="4.23509">
        <ele>525.578</ele>
        <time>2018-11-26T12:38:23Z</time>
      </trkpt>
      <trkpt lat="45.83946" lon="4.23511">
        <ele>525.142</ele>
        <time>2018-11-26T12:38:29Z</time>
      </trkpt>
      <trkpt lat="45.83948" lon="4.23507">
        <ele>524.822</ele>
        <time>2018-11-26T12:38:34Z</time>
      </trkpt>
      <trkpt lat="45.83953" lon="4.23502">
        <ele>524.202</ele>
        <time>2018-11-26T12:38:40Z</time>
      </trkpt>
      <trkpt lat="45.8396" lon="4.235">
        <ele>523.845</ele>
        <time>2018-11-26T12:38:45Z</time>
      </trkpt>
      <trkpt lat="45.83961" lon="4.23498">
        <ele>523.724</ele>
        <time>2018-11-26T12:38:51Z</time>
      </trkpt>
      <trkpt lat="45.83962" lon="4.23495">
        <ele>523.697</ele>
        <time>2018-11-26T12:38:56Z</time>
      </trkpt>
      <trkpt lat="45.83962" lon="4.23488">
        <ele>523.921</ele>
        <time>2018-11-26T12:39:02Z</time>
      </trkpt>
      <trkpt lat="45.83961" lon="4.23481">
        <ele>524.063</ele>
        <time>2018-11-26T12:39:08Z</time>
      </trkpt>
      <trkpt lat="45.8396" lon="4.23479">
        <ele>524.358</ele>
        <time>2018-11-26T12:39:14Z</time>
      </trkpt>
      <trkpt lat="45.8396" lon="4.2347">
        <ele>523.718</ele>
        <time>2018-11-26T12:39:20Z</time>
      </trkpt>
      <trkpt lat="45.83957" lon="4.23467">
        <ele>522.918</ele>
        <time>2018-11-26T12:39:26Z</time>
      </trkpt>
      <trkpt lat="45.83956" lon="4.23465">
        <ele>522.141</ele>
        <time>2018-11-26T12:39:32Z</time>
      </trkpt>
      <trkpt lat="45.83956" lon="4.23464">
        <ele>521.669</ele>
        <time>2018-11-26T12:39:37Z</time>
      </trkpt>
      <trkpt lat="45.83957" lon="4.23461">
        <ele>520.832</ele>
        <time>2018-11-26T12:39:42Z</time>
      </trkpt>
      <trkpt lat="45.83961" lon="4.23454">
        <ele>520.05</ele>
        <time>2018-11-26T12:39:48Z</time>
      </trkpt>
      <trkpt lat="45.83968" lon="4.23449">
        <ele>519.462</ele>
        <time>2018-11-26T12:39:54Z</time>
      </trkpt>
      <trkpt lat="45.83974" lon="4.23446">
        <ele>519.35</ele>
        <time>2018-11-26T12:39:59Z</time>
      </trkpt>
      <trkpt lat="45.8398" lon="4.23443">
        <ele>519.785</ele>
        <time>2018-11-26T12:40:04Z</time>
      </trkpt>
      <trkpt lat="45.83983" lon="4.23443">
        <ele>520.35</ele>
        <time>2018-11-26T12:40:09Z</time>
      </trkpt>
      <trkpt lat="45.83987" lon="4.23441">
        <ele>520.614</ele>
        <time>2018-11-26T12:40:15Z</time>
      </trkpt>
      <trkpt lat="45.83993" lon="4.23438">
        <ele>520.387</ele>
        <time>2018-11-26T12:40:20Z</time>
      </trkpt>
      <trkpt lat="45.83998" lon="4.23438">
        <ele>519.761</ele>
        <time>2018-11-26T12:40:25Z</time>
      </trkpt>
      <trkpt lat="45.84005" lon="4.23435">
        <ele>519.079</ele>
        <time>2018-11-26T12:40:31Z</time>
      </trkpt>
      <trkpt lat="45.84009" lon="4.2343">
        <ele>518.5</ele>
        <time>2018-11-26T12:40:37Z</time>
      </trkpt>
      <trkpt lat="45.8401" lon="4.23427">
        <ele>517.656</ele>
        <time>2018-11-26T12:40:42Z</time>
      </trkpt>
      <trkpt lat="45.84015" lon="4.23425">
        <ele>516.481</ele>
        <time>2018-11-26T12:40:48Z</time>
      </trkpt>
      <trkpt lat="45.84013" lon="4.23423">
        <ele>515.11</ele>
        <time>2018-11-26T12:40:54Z</time>
      </trkpt>
      <trkpt lat="45.84004" lon="4.23419">
        <ele>514.233</ele>
        <time>2018-11-26T12:40:59Z</time>
      </trkpt>
      <trkpt lat="45.83998" lon="4.23417">
        <ele>512.983</ele>
        <time>2018-11-26T12:41:05Z</time>
      </trkpt>
      <trkpt lat="45.83994" lon="4.23416">
        <ele>511.764</ele>
        <time>2018-11-26T12:41:11Z</time>
      </trkpt>
      <trkpt lat="45.83988" lon="4.23415">
        <ele>510.956</ele>
        <time>2018-11-26T12:41:16Z</time>
      </trkpt>
      <trkpt lat="45.83984" lon="4.23415">
        <ele>510.075</ele>
        <time>2018-11-26T12:41:22Z</time>
      </trkpt>
      <trkpt lat="45.83979" lon="4.23415">
        <ele>509.181</ele>
        <time>2018-11-26T12:41:28Z</time>
      </trkpt>
      <trkpt lat="45.83979" lon="4.23411">
        <ele>507.766</ele>
        <time>2018-11-26T12:41:33Z</time>
      </trkpt>
      <trkpt lat="45.83982" lon="4.23404">
        <ele>506.179</ele>
        <time>2018-11-26T12:41:38Z</time>
      </trkpt>
      <trkpt lat="45.83984" lon="4.23398">
        <ele>505.175</ele>
        <time>2018-11-26T12:41:43Z</time>
      </trkpt>
      <trkpt lat="45.83993" lon="4.23391">
        <ele>504.436</ele>
        <time>2018-11-26T12:41:49Z</time>
      </trkpt>
      <trkpt lat="45.83996" lon="4.23387">
        <ele>503.697</ele>
        <time>2018-11-26T12:41:55Z</time>
      </trkpt>
      <trkpt lat="45.83999" lon="4.2338">
        <ele>503.06</ele>
        <time>2018-11-26T12:42:00Z</time>
      </trkpt>
      <trkpt lat="45.84004" lon="4.23374">
        <ele>502.381</ele>
        <time>2018-11-26T12:42:06Z</time>
      </trkpt>
      <trkpt lat="45.84009" lon="4.23369">
        <ele>501.718</ele>
        <time>2018-11-26T12:42:12Z</time>
      </trkpt>
      <trkpt lat="45.84014" lon="4.23366">
        <ele>500.879</ele>
        <time>2018-11-26T12:42:17Z</time>
      </trkpt>
      <trkpt lat="45.84018" lon="4.23364">
        <ele>499.759</ele>
        <time>2018-11-26T12:42:22Z</time>
      </trkpt>
      <trkpt lat="45.84022" lon="4.2336">
        <ele>498.628</ele>
        <time>2018-11-26T12:42:28Z</time>
      </trkpt>
      <trkpt lat="45.84028" lon="4.23357">
        <ele>498.235</ele>
        <time>2018-11-26T12:42:33Z</time>
      </trkpt>
      <trkpt lat="45.84033" lon="4.23353">
        <ele>497.319</ele>
        <time>2018-11-26T12:42:39Z</time>
      </trkpt>
      <trkpt lat="45.8404" lon="4.23346">
        <ele>497.13</ele>
        <time>2018-11-26T12:42:45Z</time>
      </trkpt>
      <trkpt lat="45.84045" lon="4.23343">
        <ele>496.504</ele>
        <time>2018-11-26T12:42:50Z</time>
      </trkpt>
      <trkpt lat="45.84048" lon="4.2334">
        <ele>495.391</ele>
        <time>2018-11-26T12:42:55Z</time>
      </trkpt>
      <trkpt lat="45.84051" lon="4.23334">
        <ele>493.914</ele>
        <time>2018-11-26T12:43:00Z</time>
      </trkpt>
      <trkpt lat="45.84054" lon="4.23326">
        <ele>491.948</ele>
        <time>2018-11-26T12:43:06Z</time>
      </trkpt>
      <trkpt lat="45.84056" lon="4.23319">
        <ele>490.466</ele>
        <time>2018-11-26T12:43:11Z</time>
      </trkpt>
      <trkpt lat="45.84059" lon="4.23311">
        <ele>489.344</ele>
        <time>2018-11-26T12:43:16Z</time>
      </trkpt>
      <trkpt lat="45.84061" lon="4.23304">
        <ele>488.089</ele>
        <time>2018-11-26T12:43:21Z</time>
      </trkpt>
      <trkpt lat="45.84063" lon="4.23295">
        <ele>486.653</ele>
        <time>2018-11-26T12:43:27Z</time>
      </trkpt>
      <trkpt lat="45.84062" lon="4.23287">
        <ele>486.325</ele>
        <time>2018-11-26T12:43:32Z</time>
      </trkpt>
      <trkpt lat="45.84062" lon="4.23282">
        <ele>486.729</ele>
        <time>2018-11-26T12:43:37Z</time>
      </trkpt>
      <trkpt lat="45.84064" lon="4.23272">
        <ele>486.938</ele>
        <time>2018-11-26T12:43:42Z</time>
      </trkpt>
      <trkpt lat="45.84065" lon="4.23267">
        <ele>486.646</ele>
        <time>2018-11-26T12:43:48Z</time>
      </trkpt>
      <trkpt lat="45.84065" lon="4.23267">
        <ele>486.636</ele>
        <time>2018-11-26T12:43:53Z</time>
      </trkpt>
      <trkpt lat="45.84065" lon="4.23267">
        <ele>486.466</ele>
        <time>2018-11-26T12:43:58Z</time>
      </trkpt>
      <trkpt lat="45.84065" lon="4.23267">
        <ele>486.381</ele>
        <time>2018-11-26T12:44:03Z</time>
      </trkpt>
      <trkpt lat="45.84065" lon="4.23267">
        <ele>486.271</ele>
        <time>2018-11-26T12:44:09Z</time>
      </trkpt>
      <trkpt lat="45.84065" lon="4.23267">
        <ele>486.092</ele>
        <time>2018-11-26T12:44:15Z</time>
      </trkpt>
      <trkpt lat="45.84065" lon="4.23267">
        <ele>485.256</ele>
        <time>2018-11-26T12:44:21Z</time>
      </trkpt>
      <trkpt lat="45.84067" lon="4.23265">
        <ele>483.862</ele>
        <time>2018-11-26T12:44:26Z</time>
      </trkpt>
      <trkpt lat="45.84067" lon="4.23258">
        <ele>482.594</ele>
        <time>2018-11-26T12:44:31Z</time>
      </trkpt>
      <trkpt lat="45.84072" lon="4.2325">
        <ele>481.579</ele>
        <time>2018-11-26T12:44:37Z</time>
      </trkpt>
      <trkpt lat="45.84074" lon="4.23246">
        <ele>480.839</ele>
        <time>2018-11-26T12:44:42Z</time>
      </trkpt>
      <trkpt lat="45.84074" lon="4.23241">
        <ele>480.284</ele>
        <time>2018-11-26T12:44:47Z</time>
      </trkpt>
      <trkpt lat="45.84076" lon="4.23238">
        <ele>479.95</ele>
        <time>2018-11-26T12:44:53Z</time>
      </trkpt>
      <trkpt lat="45.84079" lon="4.23232">
        <ele>479.723</ele>
        <time>2018-11-26T12:44:59Z</time>
      </trkpt>
      <trkpt lat="45.84081" lon="4.23228">
        <ele>479.4</ele>
        <time>2018-11-26T12:45:04Z</time>
      </trkpt>
      <trkpt lat="45.84083" lon="4.23221">
        <ele>479.156</ele>
        <time>2018-11-26T12:45:09Z</time>
      </trkpt>
      <trkpt lat="45.84084" lon="4.23216">
        <ele>479.194</ele>
        <time>2018-11-26T12:45:14Z</time>
      </trkpt>
      <trkpt lat="45.84086" lon="4.23208">
        <ele>479.097</ele>
        <time>2018-11-26T12:45:20Z</time>
      </trkpt>
      <trkpt lat="45.84089" lon="4.23198">
        <ele>479.503</ele>
        <time>2018-11-26T12:45:26Z</time>
      </trkpt>
      <trkpt lat="45.84092" lon="4.23195">
        <ele>479.673</ele>
        <time>2018-11-26T12:45:31Z</time>
      </trkpt>
      <trkpt lat="45.84096" lon="4.23191">
        <ele>479.928</ele>
        <time>2018-11-26T12:45:36Z</time>
      </trkpt>
      <trkpt lat="45.84099" lon="4.23184">
        <ele>480.69</ele>
        <time>2018-11-26T12:45:42Z</time>
      </trkpt>
      <trkpt lat="45.84101" lon="4.2318">
        <ele>481.048</ele>
        <time>2018-11-26T12:45:47Z</time>
      </trkpt>
      <trkpt lat="45.84102" lon="4.23172">
        <ele>481.276</ele>
        <time>2018-11-26T12:45:53Z</time>
      </trkpt>
      <trkpt lat="45.84103" lon="4.23166">
        <ele>481.447</ele>
        <time>2018-11-26T12:45:59Z</time>
      </trkpt>
      <trkpt lat="45.84106" lon="4.23156">
        <ele>481.592</ele>
        <time>2018-11-26T12:46:05Z</time>
      </trkpt>
      <trkpt lat="45.84107" lon="4.23149">
        <ele>482.235</ele>
        <time>2018-11-26T12:46:11Z</time>
      </trkpt>
      <trkpt lat="45.84109" lon="4.23142">
        <ele>482.895</ele>
        <time>2018-11-26T12:46:17Z</time>
      </trkpt>
      <trkpt lat="45.84111" lon="4.23137">
        <ele>483.309</ele>
        <time>2018-11-26T12:46:22Z</time>
      </trkpt>
      <trkpt lat="45.84114" lon="4.23131">
        <ele>483.836</ele>
        <time>2018-11-26T12:46:27Z</time>
      </trkpt>
      <trkpt lat="45.84118" lon="4.23122">
        <ele>484.19</ele>
        <time>2018-11-26T12:46:33Z</time>
      </trkpt>
      <trkpt lat="45.8412" lon="4.23115">
        <ele>484.455</ele>
        <time>2018-11-26T12:46:38Z</time>
      </trkpt>
      <trkpt lat="45.84122" lon="4.23106">
        <ele>485.286</ele>
        <time>2018-11-26T12:46:44Z</time>
      </trkpt>
      <trkpt lat="45.84124" lon="4.231">
        <ele>485.878</ele>
        <time>2018-11-26T12:46:49Z</time>
      </trkpt>
      <trkpt lat="45.84126" lon="4.23091">
        <ele>486.145</ele>
        <time>2018-11-26T12:46:55Z</time>
      </trkpt>
      <trkpt lat="45.84127" lon="4.23085">
        <ele>486.67</ele>
        <time>2018-11-26T12:47:00Z</time>
      </trkpt>
      <trkpt lat="45.84128" lon="4.23077">
        <ele>487.483</ele>
        <time>2018-11-26T12:47:06Z</time>
      </trkpt>
      <trkpt lat="45.84129" lon="4.23069">
        <ele>488.262</ele>
        <time>2018-11-26T12:47:11Z</time>
      </trkpt>
      <trkpt lat="45.84129" lon="4.23063">
        <ele>489.188</ele>
        <time>2018-11-26T12:47:17Z</time>
      </trkpt>
      <trkpt lat="45.8413" lon="4.23061">
        <ele>490.044</ele>
        <time>2018-11-26T12:47:23Z</time>
      </trkpt>
      <trkpt lat="45.84129" lon="4.2306">
        <ele>490.636</ele>
        <time>2018-11-26T12:47:29Z</time>
      </trkpt>
      <trkpt lat="45.84129" lon="4.2306">
        <ele>491.127</ele>
        <time>2018-11-26T12:47:34Z</time>
      </trkpt>
      <trkpt lat="45.84129" lon="4.23059">
        <ele>491.607</ele>
        <time>2018-11-26T12:47:40Z</time>
      </trkpt>
      <trkpt lat="45.84131" lon="4.23052">
        <ele>493.082</ele>
        <time>2018-11-26T12:47:46Z</time>
      </trkpt>
      <trkpt lat="45.84135" lon="4.23044">
        <ele>493.873</ele>
        <time>2018-11-26T12:47:52Z</time>
      </trkpt>
      <trkpt lat="45.84137" lon="4.23037">
        <ele>494.498</ele>
        <time>2018-11-26T12:47:58Z</time>
      </trkpt>
      <trkpt lat="45.84141" lon="4.23032">
        <ele>495.505</ele>
        <time>2018-11-26T12:48:04Z</time>
      </trkpt>
      <trkpt lat="45.84147" lon="4.23025">
        <ele>496.482</ele>
        <time>2018-11-26T12:48:09Z</time>
      </trkpt>
      <trkpt lat="45.8415" lon="4.23021">
        <ele>497.571</ele>
        <time>2018-11-26T12:48:14Z</time>
      </trkpt>
      <trkpt lat="45.84155" lon="4.23019">
        <ele>498.487</ele>
        <time>2018-11-26T12:48:20Z</time>
      </trkpt>
      <trkpt lat="45.84161" lon="4.23016">
        <ele>498.949</ele>
        <time>2018-11-26T12:48:26Z</time>
      </trkpt>
      <trkpt lat="45.84165" lon="4.23014">
        <ele>499.292</ele>
        <time>2018-11-26T12:48:31Z</time>
      </trkpt>
      <trkpt lat="45.84168" lon="4.23012">
        <ele>499.642</ele>
        <time>2018-11-26T12:48:37Z</time>
      </trkpt>
      <trkpt lat="45.84171" lon="4.23008">
        <ele>500.12</ele>
        <time>2018-11-26T12:48:43Z</time>
      </trkpt>
      <trkpt lat="45.84176" lon="4.23005">
        <ele>501.071</ele>
        <time>2018-11-26T12:48:49Z</time>
      </trkpt>
      <trkpt lat="45.84183" lon="4.22999">
        <ele>501.458</ele>
        <time>2018-11-26T12:48:55Z</time>
      </trkpt>
      <trkpt lat="45.84187" lon="4.22994">
        <ele>502.124</ele>
        <time>2018-11-26T12:49:00Z</time>
      </trkpt>
      <trkpt lat="45.84193" lon="4.22988">
        <ele>503.193</ele>
        <time>2018-11-26T12:49:06Z</time>
      </trkpt>
      <trkpt lat="45.84225" lon="4.22965">
        <ele>459.5</ele>
      </trkpt>
      <trkpt lat="45.8427" lon="4.22922">
        <ele>456.8</ele>
      </trkpt>
      <trkpt lat="45.84306" lon="4.22896">
        <ele>448.4</ele>
      </trkpt>
      <trkpt lat="45.84341" lon="4.22888">
        <ele>445.3</ele>
      </trkpt>
      <trkpt lat="45.84371" lon="4.22892">
        <ele>444.8</ele>
      </trkpt>
      <trkpt lat="45.84404" lon="4.22896">
        <ele>443.9</ele>
      </trkpt>
      <trkpt lat="45.84431" lon="4.22918">
        <ele>442.8</ele>
      </trkpt>
      <trkpt lat="45.84458" lon="4.22909">
        <ele>445.1</ele>
      </trkpt>
      <trkpt lat="45.84509" lon="4.22888">
        <ele>449.4</ele>
      </trkpt>
      <trkpt lat="45.84569" lon="4.22866">
        <ele>454.1</ele>
      </trkpt>
      <trkpt lat="45.84625" lon="4.22832">
        <ele>466.6</ele>
      </trkpt>
      <trkpt lat="45.84664" lon="4.22806">
        <ele>467.9</ele>
      </trkpt>
      <trkpt lat="45.84694" lon="4.22793">
        <ele>470.7</ele>
      </trkpt>
      <trkpt lat="45.84727" lon="4.2278">
        <ele>472</ele>
      </trkpt>
      <trkpt lat="45.84748" lon="4.22772">
        <ele>473.4</ele>
      </trkpt>
      <trkpt lat="45.84778" lon="4.22755">
        <ele>475.6</ele>
      </trkpt>
      <trkpt lat="45.84799" lon="4.22742">
        <ele>480.3</ele>
      </trkpt>
      <trkpt lat="45.84829" lon="4.22733">
        <ele>480.6</ele>
      </trkpt>
      <trkpt lat="45.84868" lon="4.22725">
        <ele>484</ele>
      </trkpt>
      <trkpt lat="45.849" lon="4.2272">
        <ele>485</ele>
      </trkpt>
      <trkpt lat="45.84933" lon="4.22712">
        <ele>487.9</ele>
      </trkpt>
      <trkpt lat="45.84963" lon="4.22707">
        <ele>488.6</ele>
      </trkpt>
      <trkpt lat="45.84987" lon="4.22699">
        <ele>489.2</ele>
      </trkpt>
      <trkpt lat="45.84983" lon="4.22696">
        <ele>489.2</ele>
      </trkpt>
      <trkpt lat="45.84893" lon="4.22626">
        <ele>486.4</ele>
      </trkpt>
      <trkpt lat="45.84893" lon="4.22626">
        <ele>486</ele>
      </trkpt>
      <trkpt lat="45.84886" lon="4.2262">
        <ele>486.4</ele>
      </trkpt>
      <trkpt lat="45.84864" lon="4.22599">
        <ele>486.2</ele>
      </trkpt>
      <trkpt lat="45.84831" lon="4.22555">
        <ele>484.6</ele>
      </trkpt>
      <trkpt lat="45.84816" lon="4.22539">
        <ele>484.1</ele>
      </trkpt>
      <trkpt lat="45.84776" lon="4.2251">
        <ele>483.3</ele>
      </trkpt>
      <trkpt lat="45.8476" lon="4.22487">
        <ele>481.7</ele>
      </trkpt>
      <trkpt lat="45.84734" lon="4.22444">
        <ele>481.4</ele>
      </trkpt>
      <trkpt lat="45.84712" lon="4.22411">
        <ele>479.2</ele>
      </trkpt>
      <trkpt lat="45.84704" lon="4.22404">
        <ele>479.2</ele>
      </trkpt>
      <trkpt lat="45.84696" lon="4.224">
        <ele>479.2</ele>
      </trkpt>
      <trkpt lat="45.84663" lon="4.22394">
        <ele>479.8</ele>
      </trkpt>
      <trkpt lat="45.84627" lon="4.2238">
        <ele>479.3</ele>
      </trkpt>
      <trkpt lat="45.84617" lon="4.22374">
        <ele>479.3</ele>
      </trkpt>
      <trkpt lat="45.84599" lon="4.22358">
        <ele>478.9</ele>
      </trkpt>
      <trkpt lat="45.84563" lon="4.22336">
        <ele>477.9</ele>
      </trkpt>
      <trkpt lat="45.84515" lon="4.22308">
        <ele>479.3</ele>
      </trkpt>
      <trkpt lat="45.84495" lon="4.223">
        <ele>480.2</ele>
      </trkpt>
      <trkpt lat="45.84485" lon="4.22299">
        <ele>480.2</ele>
      </trkpt>
      <trkpt lat="45.84485" lon="4.22299">
        <ele>480</ele>
      </trkpt>
      <trkpt lat="45.84401" lon="4.22286">
        <ele>477.5</ele>
      </trkpt>
      <trkpt lat="45.84384" lon="4.22282">
        <ele>477</ele>
      </trkpt>
      <trkpt lat="45.84376" lon="4.22274">
        <ele>476.8</ele>
      </trkpt>
      <trkpt lat="45.84308" lon="4.22156">
        <ele>471.6</ele>
      </trkpt>
      <trkpt lat="45.84305" lon="4.22151">
        <ele>471.3</ele>
      </trkpt>
      <trkpt lat="45.84305" lon="4.22151">
        <ele>471</ele>
      </trkpt>
      <trkpt lat="45.843" lon="4.2214">
        <ele>471</ele>
      </trkpt>
      <trkpt lat="45.84292" lon="4.22144">
        <ele>470.7</ele>
      </trkpt>
      <trkpt lat="45.84286" lon="4.22136">
        <ele>470.5</ele>
      </trkpt>
      <trkpt lat="45.84259" lon="4.22121">
        <ele>470.1</ele>
      </trkpt>
      <trkpt lat="45.84251" lon="4.22117">
        <ele>470.1</ele>
      </trkpt>
      <trkpt lat="45.84251" lon="4.22118">
        <ele>470</ele>
      </trkpt>
      <trkpt lat="45.84229" lon="4.2211">
        <ele>469.1</ele>
      </trkpt>
      <trkpt lat="45.842" lon="4.22104">
        <ele>469.4</ele>
      </trkpt>
      <trkpt lat="45.84169" lon="4.22104">
        <ele>470</ele>
      </trkpt>
      <trkpt lat="45.84148" lon="4.22101">
        <ele>470</ele>
      </trkpt>
      <trkpt lat="45.84136" lon="4.22098">
        <ele>469.9</ele>
      </trkpt>
      <trkpt lat="45.84121" lon="4.2209">
        <ele>469.9</ele>
      </trkpt>
      <trkpt lat="45.84079" lon="4.22053">
        <ele>473.3</ele>
      </trkpt>
      <trkpt lat="45.84037" lon="4.22023">
        <ele>474.3</ele>
      </trkpt>
      <trkpt lat="45.84001" lon="4.21994">
        <ele>476.4</ele>
      </trkpt>
      <trkpt lat="45.83992" lon="4.21981">
        <ele>475.7</ele>
      </trkpt>
      <trkpt lat="45.83984" lon="4.21966">
        <ele>475.5</ele>
      </trkpt>
      <trkpt lat="45.83961" lon="4.21907">
        <ele>474.6</ele>
      </trkpt>
      <trkpt lat="45.8395" lon="4.2189">
        <ele>474.5</ele>
      </trkpt>
      <trkpt lat="45.83934" lon="4.2187">
        <ele>474.2</ele>
      </trkpt>
      <trkpt lat="45.83917" lon="4.21856">
        <ele>473.8</ele>
      </trkpt>
      <trkpt lat="45.83896" lon="4.21842">
        <ele>473.2</ele>
      </trkpt>
      <trkpt lat="45.83876" lon="4.21832">
        <ele>470.9</ele>
      </trkpt>
      <trkpt lat="45.83802" lon="4.21808">
        <ele>469.1</ele>
      </trkpt>
      <trkpt lat="45.83802" lon="4.21808">
        <ele>469</ele>
      </trkpt>
      <trkpt lat="45.83794" lon="4.21806">
        <ele>468.9</ele>
      </trkpt>
      <trkpt lat="45.83772" lon="4.21794">
        <ele>468.5</ele>
      </trkpt>
      <trkpt lat="45.83716" lon="4.21777">
        <ele>465.1</ele>
      </trkpt>
      <trkpt lat="45.83665" lon="4.21751">
        <ele>463.6</ele>
      </trkpt>
      <trkpt lat="45.83572" lon="4.21687">
        <ele>460.9</ele>
      </trkpt>
      <trkpt lat="45.83498" lon="4.21631">
        <ele>457</ele>
      </trkpt>
      <trkpt lat="45.83432" lon="4.21571">
        <ele>450.6</ele>
      </trkpt>
      <trkpt lat="45.83312" lon="4.2149">
        <ele>436.1</ele>
      </trkpt>
      <trkpt lat="45.83217" lon="4.2149">
        <ele>430.8</ele>
      </trkpt>
      <trkpt lat="45.83124" lon="4.21447">
        <ele>422.5</ele>
      </trkpt>
      <trkpt lat="45.83145" lon="4.21515">
        <ele>418.8</ele>
      </trkpt>
      <trkpt lat="45.83136" lon="4.21584">
        <ele>411.9</ele>
      </trkpt>
      <trkpt lat="45.83133" lon="4.21618">
        <ele>410</ele>
      </trkpt>
      <trkpt lat="45.83136" lon="4.21644">
        <ele>409.2</ele>
      </trkpt>
      <trkpt lat="45.83142" lon="4.21683">
        <ele>404</ele>
      </trkpt>
      <trkpt lat="45.83151" lon="4.21713">
        <ele>401.9</ele>
      </trkpt>
      <trkpt lat="45.83184" lon="4.2173">
        <ele>407</ele>
      </trkpt>
      <trkpt lat="45.83205" lon="4.21764">
        <ele>401.3</ele>
      </trkpt>
      <trkpt lat="45.83226" lon="4.21781">
        <ele>401.8</ele>
      </trkpt>
      <trkpt lat="45.83228" lon="4.21824">
        <ele>400.4</ele>
      </trkpt>
      <trkpt lat="45.83246" lon="4.21854">
        <ele>397.2</ele>
      </trkpt>
      <trkpt lat="45.83261" lon="4.2188">
        <ele>402</ele>
      </trkpt>
      <trkpt lat="45.83273" lon="4.21923">
        <ele>395.5</ele>
      </trkpt>
      <trkpt lat="45.83273" lon="4.2194">
        <ele>395.7</ele>
      </trkpt>
      <trkpt lat="45.833" lon="4.21974">
        <ele>396.3</ele>
      </trkpt>
      <trkpt lat="45.83315" lon="4.22">
        <ele>394.8</ele>
      </trkpt>
      <trkpt lat="45.83312" lon="4.22069">
        <ele>394.5</ele>
      </trkpt>
      <trkpt lat="45.833" lon="4.22142">
        <ele>402.8</ele>
      </trkpt>
      <trkpt lat="45.83291" lon="4.22198">
        <ele>413.4</ele>
      </trkpt>
      <trkpt lat="45.83279" lon="4.22262">
        <ele>422.9</ele>
      </trkpt>
      <trkpt lat="45.83273" lon="4.22313">
        <ele>424.3</ele>
      </trkpt>
      <trkpt lat="45.8327" lon="4.22378">
        <ele>429</ele>
      </trkpt>
      <trkpt lat="45.83252" lon="4.22416">
        <ele>430.8</ele>
      </trkpt>
      <trkpt lat="45.83249" lon="4.22489">
        <ele>435.2</ele>
      </trkpt>
      <trkpt lat="45.83252" lon="4.22541">
        <ele>437.5</ele>
      </trkpt>
      <trkpt lat="45.83261" lon="4.22627">
        <ele>441.9</ele>
      </trkpt>
      <trkpt lat="45.83291" lon="4.227">
        <ele>445.7</ele>
      </trkpt>
      <trkpt lat="45.83348" lon="4.22755">
        <ele>448.8</ele>
      </trkpt>
      <trkpt lat="45.8342" lon="4.22798">
        <ele>459.5</ele>
      </trkpt>
      <trkpt lat="45.83477" lon="4.22845">
        <ele>467.8</ele>
      </trkpt>
      <trkpt lat="45.83539" lon="4.22884">
        <ele>483.6</ele>
      </trkpt>
      <trkpt lat="45.83578" lon="4.22888">
        <ele>488.1</ele>
      </trkpt>
      <trkpt lat="45.83593" lon="4.22923">
        <ele>497.3</ele>
      </trkpt>
      <trkpt lat="45.83617" lon="4.23004">
        <ele>503</ele>
      </trkpt>
      <trkpt lat="45.83647" lon="4.23094">
        <ele>506.4</ele>
      </trkpt>
      <trkpt lat="45.83662" lon="4.23163">
        <ele>508.8</ele>
      </trkpt>
      <trkpt lat="45.83677" lon="4.2321">
        <ele>510.5</ele>
      </trkpt>
      <trkpt lat="45.83689" lon="4.23275">
        <ele>513.1</ele>
      </trkpt>
      <trkpt lat="45.83689" lon="4.23322">
        <ele>514.7</ele>
      </trkpt>
      <trkpt lat="45.83671" lon="4.23356">
        <ele>514.6</ele>
      </trkpt>
      <trkpt lat="45.83632" lon="4.23378">
        <ele>516</ele>
      </trkpt>
      <trkpt lat="45.83575" lon="4.2342">
        <ele>511.3</ele>
      </trkpt>
      <trkpt lat="45.83551" lon="4.2342">
        <ele>507.9</ele>
      </trkpt>
      <trkpt lat="45.83578" lon="4.2347">
        <ele>504.9</ele>
      </trkpt>
      <trkpt lat="45.83595" lon="4.23506">
        <ele>499.9</ele>
      </trkpt>
      <trkpt lat="45.83603" lon="4.23543">
        <ele>497</ele>
      </trkpt>
      <trkpt lat="45.83606" lon="4.23568">
        <ele>495.6</ele>
      </trkpt>
      <trkpt lat="45.83612" lon="4.23585">
        <ele>492</ele>
      </trkpt>
      <trkpt lat="45.83613" lon="4.23596">
        <ele>491.9</ele>
      </trkpt>
      <trkpt lat="45.83636" lon="4.23611">
        <ele>491.1</ele>
      </trkpt>
      <trkpt lat="45.83655" lon="4.23618">
        <ele>490.7</ele>
      </trkpt>
      <trkpt lat="45.83675" lon="4.23622">
        <ele>486.6</ele>
      </trkpt>
      <trkpt lat="45.83696" lon="4.23637">
        <ele>485.7</ele>
      </trkpt>
      <trkpt lat="45.83715" lon="4.2365">
        <ele>484.7</ele>
      </trkpt>
      <trkpt lat="45.83721" lon="4.23665">
        <ele>484.4</ele>
      </trkpt>
      <trkpt lat="45.83727" lon="4.23678">
        <ele>487.3</ele>
      </trkpt>
      <trkpt lat="45.83749" lon="4.23673">
        <ele>484</ele>
      </trkpt>
      <trkpt lat="45.8377" lon="4.23671">
        <ele>483.5</ele>
      </trkpt>
      <trkpt lat="45.8379" lon="4.23665">
        <ele>480.1</ele>
      </trkpt>
      <trkpt lat="45.838" lon="4.23663">
        <ele>480</ele>
      </trkpt>
      <trkpt lat="45.83803" lon="4.23671">
        <ele>483.3</ele>
      </trkpt>
      <trkpt lat="45.83815" lon="4.23663">
        <ele>480.1</ele>
      </trkpt>
      <trkpt lat="45.8383" lon="4.23643">
        <ele>479.7</ele>
      </trkpt>
      <trkpt lat="45.83844" lon="4.23633">
        <ele>477.3</ele>
      </trkpt>
      <trkpt lat="45.83853" lon="4.23658">
        <ele>478.1</ele>
      </trkpt>
    </trkseg>
  </trk>
</gpx>